sensor_id;sensor_type;location;lat;lon;timestamp;temperature;humidity
24800;DHT22;12897;50.812;4.430;2023-01-16T00:00:01;5.70;99.90
24800;DHT22;12897;50.812;4.430;2023-01-16T00:02:28;5.70;99.90
24800;DHT22;12897;50.812;4.430;2023-01-16T00:05:00;5.70;99.90
24800;DHT22;12897;50.812;4.430;2023-01-16T00:07:28;5.80;99.90
24800;DHT22;12897;50.812;4.430;2023-01-16T00:09:54;5.90;99.90
24800;DHT22;12897;50.812;4.430;2023-01-16T00:12:22;6.10;99.90
24800;DHT22;12897;50.812;4.430;2023-01-16T00:14:56;6.30;99.90
24800;DHT22;12897;50.812;4.430;2023-01-16T00:17:22;6.30;99.90
24800;DHT22;12897;50.812;4.430;2023-01-16T00:19:50;6.20;99.90
24800;DHT22;12897;50.812;4.430;2023-01-16T00:22:24;6.10;99.90
24800;DHT22;12897;50.812;4.430;2023-01-16T00:24:53;6.10;99.90
24800;DHT22;12897;50.812;4.430;2023-01-16T00:27:20;6.00;99.90
24800;DHT22;12897;50.812;4.430;2023-01-16T00:29:54;6.00;99.90
24800;DHT22;12897;50.812;4.430;2023-01-16T00:32:22;6.10;99.90
24800;DHT22;12897;50.812;4.430;2023-01-16T00:34:55;6.20;99.90
24800;DHT22;12897;50.812;4.430;2023-01-16T00:37:23;6.30;99.90
24800;DHT22;12897;50.812;4.430;2023-01-16T00:39:50;6.40;99.90
24800;DHT22;12897;50.812;4.430;2023-01-16T00:42:21;6.40;99.90
24800;DHT22;12897;50.812;4.430;2023-01-16T00:44:50;6.30;99.90
24800;DHT22;12897;50.812;4.430;2023-01-16T00:47:20;6.30;99.90
24800;DHT22;12897;50.812;4.430;2023-01-16T00:49:47;6.20;99.90
24800;DHT22;12897;50.812;4.430;2023-01-16T00:52:22;6.20;99.90
24800;DHT22;12897;50.812;4.430;2023-01-16T00:54:47;6.00;99.90
24800;DHT22;12897;50.812;4.430;2023-01-16T00:57:14;6.00;99.90
24800;DHT22;12897;50.812;4.430;2023-01-16T00:59:45;6.10;99.90
24800;DHT22;12897;50.812;4.430;2023-01-16T01:02:22;6.10;99.90
24800;DHT22;12897;50.812;4.430;2023-01-16T01:04:43;6.20;99.90
24800;DHT22;12897;50.812;4.430;2023-01-16T01:07:11;6.30;99.90
24800;DHT22;12897;50.812;4.430;2023-01-16T01:09:38;6.40;99.90
24800;DHT22;12897;50.812;4.430;2023-01-16T01:12:09;6.30;99.90
24800;DHT22;12897;50.812;4.430;2023-01-16T01:14:37;6.30;99.90
24800;DHT22;12897;50.812;4.430;2023-01-16T01:17:04;6.20;99.90
24800;DHT22;12897;50.812;4.430;2023-01-16T01:19:39;6.30;99.90
24800;DHT22;12897;50.812;4.430;2023-01-16T01:22:06;6.20;99.90
24800;DHT22;12897;50.812;4.430;2023-01-16T01:24:34;6.20;99.90
24800;DHT22;12897;50.812;4.430;2023-01-16T01:27:04;6.30;99.90
24800;DHT22;12897;50.812;4.430;2023-01-16T01:29:32;6.30;99.90
24800;DHT22;12897;50.812;4.430;2023-01-16T01:32:03;6.20;99.90
24800;DHT22;12897;50.812;4.430;2023-01-16T01:34:32;6.30;99.90
24800;DHT22;12897;50.812;4.430;2023-01-16T01:37:07;6.40;99.90
24800;DHT22;12897;50.812;4.430;2023-01-16T01:39:38;6.40;99.90
24800;DHT22;12897;50.812;4.430;2023-01-16T01:42:12;6.30;99.90
24800;DHT22;12897;50.812;4.430;2023-01-16T01:45:15;6.40;99.90
24800;DHT22;12897;50.812;4.430;2023-01-16T01:47:54;6.30;99.90
24800;DHT22;12897;50.812;4.430;2023-01-16T01:53:07;6.30;99.90
24800;DHT22;12897;50.812;4.430;2023-01-16T01:55:33;6.40;99.90
24800;DHT22;12897;50.812;4.430;2023-01-16T01:58:05;6.50;99.90
24800;DHT22;12897;50.812;4.430;2023-01-16T02:00:33;6.60;99.90
24800;DHT22;12897;50.812;4.430;2023-01-16T02:03:10;6.60;99.90
24800;DHT22;12897;50.812;4.430;2023-01-16T02:05:48;6.60;99.90
24800;DHT22;12897;50.812;4.430;2023-01-16T02:08:19;6.60;99.90
24800;DHT22;12897;50.812;4.430;2023-01-16T02:11:07;6.70;99.90
24800;DHT22;12897;50.812;4.430;2023-01-16T02:13:36;6.70;99.90
24800;DHT22;12897;50.812;4.430;2023-01-16T02:16:05;6.70;99.90
24800;DHT22;12897;50.812;4.430;2023-01-16T02:18:53;6.70;99.90
24800;DHT22;12897;50.812;4.430;2023-01-16T02:22:13;6.70;99.90
24800;DHT22;12897;50.812;4.430;2023-01-16T02:27:49;6.60;99.90
24800;DHT22;12897;50.812;4.430;2023-01-16T02:41:36;6.80;99.90
24800;DHT22;12897;50.812;4.430;2023-01-16T02:44:20;6.80;99.90
24800;DHT22;12897;50.812;4.430;2023-01-16T02:46:51;6.80;99.90
24800;DHT22;12897;50.812;4.430;2023-01-16T02:49:20;6.80;99.90
24800;DHT22;12897;50.812;4.430;2023-01-16T02:52:06;6.80;99.90
24800;DHT22;12897;50.812;4.430;2023-01-16T02:54:37;6.90;99.90
24800;DHT22;12897;50.812;4.430;2023-01-16T02:57:14;7.00;99.90
24800;DHT22;12897;50.812;4.430;2023-01-16T02:59:40;7.00;99.90
24800;DHT22;12897;50.812;4.430;2023-01-16T03:02:18;6.90;99.90
24800;DHT22;12897;50.812;4.430;2023-01-16T03:04:48;6.80;99.90
24800;DHT22;12897;50.812;4.430;2023-01-16T03:07:27;6.80;99.90
24800;DHT22;12897;50.812;4.430;2023-01-16T03:10:15;6.90;99.90
24800;DHT22;12897;50.812;4.430;2023-01-16T03:16:01;7.00;99.90
24800;DHT22;12897;50.812;4.430;2023-01-16T03:27:26;7.20;99.90
24800;DHT22;12897;50.812;4.430;2023-01-16T03:29:58;7.10;99.90
24800;DHT22;12897;50.812;4.430;2023-01-16T03:32:41;7.00;99.90
24800;DHT22;12897;50.812;4.430;2023-01-16T03:35:14;7.00;99.90
24800;DHT22;12897;50.812;4.430;2023-01-16T03:37:45;7.00;99.90
24800;DHT22;12897;50.812;4.430;2023-01-16T03:40:17;7.10;99.90
24800;DHT22;12897;50.812;4.430;2023-01-16T03:43:06;7.10;99.90
24800;DHT22;12897;50.812;4.430;2023-01-16T03:50:44;7.00;99.90
24800;DHT22;12897;50.812;4.430;2023-01-16T03:53:13;7.00;99.90
24800;DHT22;12897;50.812;4.430;2023-01-16T03:58:33;7.00;99.90
24800;DHT22;12897;50.812;4.430;2023-01-16T04:01:21;7.00;99.90
24800;DHT22;12897;50.812;4.430;2023-01-16T04:04:13;7.10;99.90
24800;DHT22;12897;50.812;4.430;2023-01-16T04:06:48;7.00;99.90
24800;DHT22;12897;50.812;4.430;2023-01-16T04:09:18;7.10;99.90
24800;DHT22;12897;50.812;4.430;2023-01-16T04:11:47;7.10;99.90
24800;DHT22;12897;50.812;4.430;2023-01-16T04:14:20;7.10;99.90
24800;DHT22;12897;50.812;4.430;2023-01-16T04:16:50;7.10;99.90
24800;DHT22;12897;50.812;4.430;2023-01-16T04:19:23;7.20;99.90
24800;DHT22;12897;50.812;4.430;2023-01-16T04:21:55;7.20;99.90
24800;DHT22;12897;50.812;4.430;2023-01-16T04:24:23;7.00;99.90
24800;DHT22;12897;50.812;4.430;2023-01-16T04:26:50;7.00;99.90
24800;DHT22;12897;50.812;4.430;2023-01-16T04:29:21;7.00;99.90
24800;DHT22;12897;50.812;4.430;2023-01-16T04:31:50;6.90;99.90
24800;DHT22;12897;50.812;4.430;2023-01-16T04:34:17;7.10;99.90
24800;DHT22;12897;50.812;4.430;2023-01-16T04:36:45;6.90;99.90
24800;DHT22;12897;50.812;4.430;2023-01-16T04:39:13;7.00;99.90
24800;DHT22;12897;50.812;4.430;2023-01-16T04:41:43;7.00;99.90
24800;DHT22;12897;50.812;4.430;2023-01-16T04:44:15;7.00;99.90
24800;DHT22;12897;50.812;4.430;2023-01-16T04:46:45;7.00;99.90
24800;DHT22;12897;50.812;4.430;2023-01-16T04:49:13;7.00;99.90
24800;DHT22;12897;50.812;4.430;2023-01-16T04:51:43;7.00;99.90
24800;DHT22;12897;50.812;4.430;2023-01-16T04:54:13;7.00;99.90
24800;DHT22;12897;50.812;4.430;2023-01-16T04:56:42;7.00;99.90
24800;DHT22;12897;50.812;4.430;2023-01-16T04:59:13;6.90;99.90
24800;DHT22;12897;50.812;4.430;2023-01-16T05:01:42;6.90;99.90
24800;DHT22;12897;50.812;4.430;2023-01-16T05:04:14;6.90;99.90
24800;DHT22;12897;50.812;4.430;2023-01-16T05:06:42;6.80;99.90
24800;DHT22;12897;50.812;4.430;2023-01-16T05:09:10;6.80;99.90
24800;DHT22;12897;50.812;4.430;2023-01-16T05:11:38;6.80;99.90
24800;DHT22;12897;50.812;4.430;2023-01-16T05:14:06;6.90;99.90
24800;DHT22;12897;50.812;4.430;2023-01-16T05:16:35;6.90;99.90
24800;DHT22;12897;50.812;4.430;2023-01-16T05:19:07;6.90;99.90
24800;DHT22;12897;50.812;4.430;2023-01-16T05:21:37;6.80;99.90
24800;DHT22;12897;50.812;4.430;2023-01-16T05:24:05;6.60;99.90
24800;DHT22;12897;50.812;4.430;2023-01-16T05:26:35;6.50;99.90
24800;DHT22;12897;50.812;4.430;2023-01-16T05:29:03;6.40;99.90
24800;DHT22;12897;50.812;4.430;2023-01-16T05:31:31;6.50;99.90
24800;DHT22;12897;50.812;4.430;2023-01-16T05:33:59;6.50;99.90
24800;DHT22;12897;50.812;4.430;2023-01-16T05:36:34;6.50;99.90
24800;DHT22;12897;50.812;4.430;2023-01-16T05:39:02;6.40;99.90
24800;DHT22;12897;50.812;4.430;2023-01-16T05:41:33;6.30;99.90
24800;DHT22;12897;50.812;4.430;2023-01-16T05:44:03;6.30;99.90
24800;DHT22;12897;50.812;4.430;2023-01-16T05:46:34;6.20;99.90
24800;DHT22;12897;50.812;4.430;2023-01-16T05:49:02;6.20;99.90
24800;DHT22;12897;50.812;4.430;2023-01-16T05:51:30;6.20;99.90
24800;DHT22;12897;50.812;4.430;2023-01-16T05:53:58;6.20;99.90
24800;DHT22;12897;50.812;4.430;2023-01-16T05:56:35;6.20;99.90
24800;DHT22;12897;50.812;4.430;2023-01-16T05:59:03;6.30;99.90
24800;DHT22;12897;50.812;4.430;2023-01-16T06:01:30;6.20;99.90
24800;DHT22;12897;50.812;4.430;2023-01-16T06:03:58;6.20;99.90
24800;DHT22;12897;50.812;4.430;2023-01-16T06:06:29;6.20;99.90
24800;DHT22;12897;50.812;4.430;2023-01-16T06:08:57;6.20;99.90
24800;DHT22;12897;50.812;4.430;2023-01-16T06:11:25;6.10;99.90
24800;DHT22;12897;50.812;4.430;2023-01-16T06:13:54;6.10;99.90
24800;DHT22;12897;50.812;4.430;2023-01-16T06:16:25;6.10;99.90
24800;DHT22;12897;50.812;4.430;2023-01-16T06:18:56;6.10;99.90
24800;DHT22;12897;50.812;4.430;2023-01-16T06:21:24;6.10;99.90
24800;DHT22;12897;50.812;4.430;2023-01-16T06:23:51;6.10;99.90
24800;DHT22;12897;50.812;4.430;2023-01-16T06:26:20;6.10;99.90
24800;DHT22;12897;50.812;4.430;2023-01-16T06:28:55;6.00;99.90
24800;DHT22;12897;50.812;4.430;2023-01-16T06:31:27;5.90;99.90
24800;DHT22;12897;50.812;4.430;2023-01-16T06:34:02;5.90;99.90
24800;DHT22;12897;50.812;4.430;2023-01-16T06:36:29;5.90;99.90
24800;DHT22;12897;50.812;4.430;2023-01-16T06:38:56;5.90;99.90
24800;DHT22;12897;50.812;4.430;2023-01-16T06:41:23;5.90;99.90
24800;DHT22;12897;50.812;4.430;2023-01-16T06:43:51;5.90;99.90
24800;DHT22;12897;50.812;4.430;2023-01-16T06:46:22;6.00;99.90
24800;DHT22;12897;50.812;4.430;2023-01-16T06:48:51;5.90;99.90
24800;DHT22;12897;50.812;4.430;2023-01-16T06:51:24;5.90;99.90
24800;DHT22;12897;50.812;4.430;2023-01-16T06:53:54;5.90;99.90
24800;DHT22;12897;50.812;4.430;2023-01-16T06:56:24;6.00;99.90
24800;DHT22;12897;50.812;4.430;2023-01-16T06:58:56;5.90;99.90
24800;DHT22;12897;50.812;4.430;2023-01-16T07:01:23;5.90;99.90
24800;DHT22;12897;50.812;4.430;2023-01-16T07:03:53;5.90;99.90
24800;DHT22;12897;50.812;4.430;2023-01-16T07:06:23;5.80;99.90
24800;DHT22;12897;50.812;4.430;2023-01-16T07:08:50;5.70;99.90
24800;DHT22;12897;50.812;4.430;2023-01-16T07:11:37;5.80;99.90
24800;DHT22;12897;50.812;4.430;2023-01-16T07:13:53;5.80;99.90
24800;DHT22;12897;50.812;4.430;2023-01-16T07:16:22;5.90;99.90
24800;DHT22;12897;50.812;4.430;2023-01-16T07:19:12;5.90;99.90
24800;DHT22;12897;50.812;4.430;2023-01-16T07:22:02;5.90;99.90
24800;DHT22;12897;50.812;4.430;2023-01-16T07:25:06;5.90;99.90
24800;DHT22;12897;50.812;4.430;2023-01-16T07:27:38;5.90;99.90
24800;DHT22;12897;50.812;4.430;2023-01-16T07:30:04;5.90;99.90
24800;DHT22;12897;50.812;4.430;2023-01-16T07:32:32;5.90;99.90
24800;DHT22;12897;50.812;4.430;2023-01-16T07:35:06;6.00;99.90
24800;DHT22;12897;50.812;4.430;2023-01-16T07:37:35;6.00;99.90
24800;DHT22;12897;50.812;4.430;2023-01-16T07:40:06;5.90;99.90
24800;DHT22;12897;50.812;4.430;2023-01-16T07:42:39;5.90;99.90
24800;DHT22;12897;50.812;4.430;2023-01-16T07:45:07;6.00;99.90
24800;DHT22;12897;50.812;4.430;2023-01-16T07:47:35;6.10;99.90
24800;DHT22;12897;50.812;4.430;2023-01-16T07:50:05;6.20;99.90
24800;DHT22;12897;50.812;4.430;2023-01-16T07:52:35;6.10;99.90
24800;DHT22;12897;50.812;4.430;2023-01-16T07:55:02;6.10;99.90
24800;DHT22;12897;50.812;4.430;2023-01-16T07:57:31;6.10;99.90
24800;DHT22;12897;50.812;4.430;2023-01-16T08:00:00;6.10;99.90
24800;DHT22;12897;50.812;4.430;2023-01-16T08:02:31;6.00;99.90
24800;DHT22;12897;50.812;4.430;2023-01-16T08:05:00;6.00;99.90
24800;DHT22;12897;50.812;4.430;2023-01-16T08:07:27;6.10;99.90
24800;DHT22;12897;50.812;4.430;2023-01-16T08:09:59;6.20;99.90
24800;DHT22;12897;50.812;4.430;2023-01-16T08:12:29;6.30;99.90
24800;DHT22;12897;50.812;4.430;2023-01-16T08:15:00;6.30;99.90
24800;DHT22;12897;50.812;4.430;2023-01-16T08:17:32;6.40;99.90
24800;DHT22;12897;50.812;4.430;2023-01-16T08:20:01;6.30;99.90
24800;DHT22;12897;50.812;4.430;2023-01-16T08:22:30;6.30;99.90
24800;DHT22;12897;50.812;4.430;2023-01-16T08:24:58;6.30;99.90
24800;DHT22;12897;50.812;4.430;2023-01-16T08:27:30;6.40;99.90
24800;DHT22;12897;50.812;4.430;2023-01-16T08:29:57;6.30;99.90
24800;DHT22;12897;50.812;4.430;2023-01-16T08:32:25;6.40;99.90
24800;DHT22;12897;50.812;4.430;2023-01-16T08:34:56;6.40;99.90
24800;DHT22;12897;50.812;4.430;2023-01-16T08:37:26;6.50;99.90
24800;DHT22;12897;50.812;4.430;2023-01-16T08:39:54;6.50;99.90
24800;DHT22;12897;50.812;4.430;2023-01-16T08:42:22;6.50;99.90
24800;DHT22;12897;50.812;4.430;2023-01-16T08:45:13;6.60;99.90
24800;DHT22;12897;50.812;4.430;2023-01-16T08:48:00;6.80;99.90
24800;DHT22;12897;50.812;4.430;2023-01-16T08:50:46;6.90;99.90
24800;DHT22;12897;50.812;4.430;2023-01-16T08:53:34;7.00;99.90
24800;DHT22;12897;50.812;4.430;2023-01-16T08:56:01;7.00;99.90
24800;DHT22;12897;50.812;4.430;2023-01-16T08:58:29;7.00;99.90
24800;DHT22;12897;50.812;4.430;2023-01-16T09:00:57;7.00;99.90
24800;DHT22;12897;50.812;4.430;2023-01-16T09:03:27;6.90;99.90
24800;DHT22;12897;50.812;4.430;2023-01-16T09:05:59;6.90;99.90
24800;DHT22;12897;50.812;4.430;2023-01-16T09:08:27;6.90;99.90
24800;DHT22;12897;50.812;4.430;2023-01-16T09:10:55;7.00;99.90
24800;DHT22;12897;50.812;4.430;2023-01-16T09:13:40;7.10;99.90
24800;DHT22;12897;50.812;4.430;2023-01-16T09:16:20;7.20;99.90
24800;DHT22;12897;50.812;4.430;2023-01-16T09:18:52;7.20;99.90
24800;DHT22;12897;50.812;4.430;2023-01-16T09:21:20;7.30;99.90
24800;DHT22;12897;50.812;4.430;2023-01-16T09:23:52;7.30;99.90
24800;DHT22;12897;50.812;4.430;2023-01-16T09:26:20;7.30;99.90
24800;DHT22;12897;50.812;4.430;2023-01-16T09:28:48;7.10;99.90
24800;DHT22;12897;50.812;4.430;2023-01-16T09:31:16;7.20;99.90
24800;DHT22;12897;50.812;4.430;2023-01-16T09:33:51;7.40;99.90
24800;DHT22;12897;50.812;4.430;2023-01-16T09:36:17;7.30;99.90
24800;DHT22;12897;50.812;4.430;2023-01-16T09:38:46;7.40;99.90
24800;DHT22;12897;50.812;4.430;2023-01-16T09:41:16;7.50;99.90
24800;DHT22;12897;50.812;4.430;2023-01-16T09:44:05;7.50;99.90
24800;DHT22;12897;50.812;4.430;2023-01-16T09:46:50;7.40;99.90
24800;DHT22;12897;50.812;4.430;2023-01-16T09:49:25;7.30;99.90
24800;DHT22;12897;50.812;4.430;2023-01-16T09:51:56;7.40;99.90
24800;DHT22;12897;50.812;4.430;2023-01-16T09:54:44;7.40;99.90
24800;DHT22;12897;50.812;4.430;2023-01-16T09:57:31;7.50;99.90
24800;DHT22;12897;50.812;4.430;2023-01-16T10:00:20;7.50;99.90
24800;DHT22;12897;50.812;4.430;2023-01-16T10:02:56;7.50;99.90
24800;DHT22;12897;50.812;4.430;2023-01-16T10:05:24;7.60;99.90
24800;DHT22;12897;50.812;4.430;2023-01-16T10:11:10;7.50;99.90
24800;DHT22;12897;50.812;4.430;2023-01-16T10:16:32;7.40;99.90
24800;DHT22;12897;50.812;4.430;2023-01-16T10:19:04;7.40;99.90
24800;DHT22;12897;50.812;4.430;2023-01-16T10:24:25;7.40;99.90
24800;DHT22;12897;50.812;4.430;2023-01-16T10:26:59;7.70;99.90
24800;DHT22;12897;50.812;4.430;2023-01-16T10:29:39;7.70;99.90
24800;DHT22;12897;50.812;4.430;2023-01-16T10:32:27;7.70;99.90
24800;DHT22;12897;50.812;4.430;2023-01-16T10:37:40;7.40;99.90
24800;DHT22;12897;50.812;4.430;2023-01-16T10:40:26;7.30;99.90
24800;DHT22;12897;50.812;4.430;2023-01-16T10:43:02;7.30;99.90
24800;DHT22;12897;50.812;4.430;2023-01-16T10:45:52;7.50;99.90
24800;DHT22;12897;50.812;4.430;2023-01-16T10:48:38;7.50;99.90
24800;DHT22;12897;50.812;4.430;2023-01-16T10:51:24;7.60;99.90
24800;DHT22;12897;50.812;4.430;2023-01-16T10:53:52;7.50;99.90
24800;DHT22;12897;50.812;4.430;2023-01-16T10:56:20;7.60;99.90
24800;DHT22;12897;50.812;4.430;2023-01-16T10:58:48;7.70;99.90
24800;DHT22;12897;50.812;4.430;2023-01-16T11:01:18;7.60;99.90
24800;DHT22;12897;50.812;4.430;2023-01-16T11:06:29;7.70;99.90
24800;DHT22;12897;50.812;4.430;2023-01-16T11:09:16;7.80;99.90
24800;DHT22;12897;50.812;4.430;2023-01-16T11:11:36;7.90;99.90
24800;DHT22;12897;50.812;4.430;2023-01-16T11:14:24;7.90;99.90
24800;DHT22;12897;50.812;4.430;2023-01-16T11:20:33;7.90;99.90
24800;DHT22;12897;50.812;4.430;2023-01-16T11:23:33;7.80;99.90
24800;DHT22;12897;50.812;4.430;2023-01-16T11:25:50;7.90;99.90
24800;DHT22;12897;50.812;4.430;2023-01-16T11:28:26;8.00;99.90
24800;DHT22;12897;50.812;4.430;2023-01-16T11:31:06;8.00;99.90
24800;DHT22;12897;50.812;4.430;2023-01-16T11:33:25;8.10;99.90
24800;DHT22;12897;50.812;4.430;2023-01-16T11:35:58;8.30;99.90
24800;DHT22;12897;50.812;4.430;2023-01-16T11:38:29;8.20;99.90
24800;DHT22;12897;50.812;4.430;2023-01-16T11:41:01;8.30;99.90
24800;DHT22;12897;50.812;4.430;2023-01-16T11:43:31;8.20;99.90
24800;DHT22;12897;50.812;4.430;2023-01-16T11:46:36;8.00;99.90
24800;DHT22;12897;50.812;4.430;2023-01-16T11:49:15;8.10;99.90
24800;DHT22;12897;50.812;4.430;2023-01-16T11:51:36;8.10;99.90
24800;DHT22;12897;50.812;4.430;2023-01-16T11:54:11;7.80;99.90
24800;DHT22;12897;50.812;4.430;2023-01-16T12:02:45;7.70;99.90
24800;DHT22;12897;50.812;4.430;2023-01-16T12:11:10;7.80;99.90
24800;DHT22;12897;50.812;4.430;2023-01-16T12:22:17;7.80;99.90
24800;DHT22;12897;50.812;4.430;2023-01-16T12:24:48;7.80;99.90
24800;DHT22;12897;50.812;4.430;2023-01-16T12:27:41;7.50;99.90
24800;DHT22;12897;50.812;4.430;2023-01-16T12:30:20;7.50;99.90
24800;DHT22;12897;50.812;4.430;2023-01-16T12:38:10;7.70;99.90
24800;DHT22;12897;50.812;4.430;2023-01-16T12:40:46;7.60;99.90
24800;DHT22;12897;50.812;4.430;2023-01-16T12:43:30;7.70;99.90
24800;DHT22;12897;50.812;4.430;2023-01-16T12:46:09;7.90;99.90
24800;DHT22;12897;50.812;4.430;2023-01-16T12:48:41;8.00;99.90
24800;DHT22;12897;50.812;4.430;2023-01-16T12:59:23;7.80;99.90
24800;DHT22;12897;50.812;4.430;2023-01-16T13:01:59;7.90;99.90
24800;DHT22;12897;50.812;4.430;2023-01-16T13:04:26;8.00;99.90
24800;DHT22;12897;50.812;4.430;2023-01-16T13:06:56;8.00;99.90
24800;DHT22;12897;50.812;4.430;2023-01-16T13:12:01;8.20;99.90
24800;DHT22;12897;50.812;4.430;2023-01-16T13:14:49;8.00;99.90
24800;DHT22;12897;50.812;4.430;2023-01-16T13:17:19;7.90;99.90
24800;DHT22;12897;50.812;4.430;2023-01-16T13:19:49;8.00;99.90
24800;DHT22;12897;50.812;4.430;2023-01-16T13:25:18;8.50;99.90
24800;DHT22;12897;50.812;4.430;2023-01-16T13:27:50;8.50;99.90
24800;DHT22;12897;50.812;4.430;2023-01-16T13:30:18;8.50;99.90
24800;DHT22;12897;50.812;4.430;2023-01-16T13:33:00;8.50;99.90
24800;DHT22;12897;50.812;4.430;2023-01-16T13:35:35;8.60;99.90
24800;DHT22;12897;50.812;4.430;2023-01-16T13:41:10;8.90;99.90
24800;DHT22;12897;50.812;4.430;2023-01-16T13:43:46;8.90;99.90
24800;DHT22;12897;50.812;4.430;2023-01-16T13:46:29;8.80;99.90
24800;DHT22;12897;50.812;4.430;2023-01-16T13:49:00;8.60;99.90
24800;DHT22;12897;50.812;4.430;2023-01-16T13:51:29;8.70;99.90
24800;DHT22;12897;50.812;4.430;2023-01-16T13:53:59;8.70;99.90
24800;DHT22;12897;50.812;4.430;2023-01-16T13:56:31;8.80;99.90
24800;DHT22;12897;50.812;4.430;2023-01-16T13:59:24;8.80;99.90
24800;DHT22;12897;50.812;4.430;2023-01-16T14:07:02;9.00;99.90
24800;DHT22;12897;50.812;4.430;2023-01-16T14:10:14;9.00;99.90
24800;DHT22;12897;50.812;4.430;2023-01-16T14:13:12;9.10;99.90
24800;DHT22;12897;50.812;4.430;2023-01-16T14:18:59;9.00;99.90
24800;DHT22;12897;50.812;4.430;2023-01-16T14:21:17;8.70;99.90
24800;DHT22;12897;50.812;4.430;2023-01-16T14:23:54;8.60;99.90
24800;DHT22;12897;50.812;4.430;2023-01-16T14:26:45;8.70;99.90
24800;DHT22;12897;50.812;4.430;2023-01-16T14:29:44;8.60;99.90
24800;DHT22;12897;50.812;4.430;2023-01-16T14:37:19;8.40;99.90
24800;DHT22;12897;50.812;4.430;2023-01-16T14:39:51;8.20;99.90
24800;DHT22;12897;50.812;4.430;2023-01-16T14:45:34;8.00;99.90
24800;DHT22;12897;50.812;4.430;2023-01-16T14:51:30;7.50;99.90
24800;DHT22;12897;50.812;4.430;2023-01-16T14:54:33;7.40;99.90
24800;DHT22;12897;50.812;4.430;2023-01-16T14:57:22;7.10;99.90
24800;DHT22;12897;50.812;4.430;2023-01-16T15:00:13;7.00;99.90
24800;DHT22;12897;50.812;4.430;2023-01-16T15:05:05;7.10;99.90
24800;DHT22;12897;50.812;4.430;2023-01-16T15:07:48;7.00;99.90
24800;DHT22;12897;50.812;4.430;2023-01-16T15:10:27;7.00;99.90
24800;DHT22;12897;50.812;4.430;2023-01-16T15:13:11;7.10;99.90
24800;DHT22;12897;50.812;4.430;2023-01-16T15:15:30;7.10;99.90
24800;DHT22;12897;50.812;4.430;2023-01-16T15:17:58;7.00;99.90
24800;DHT22;12897;50.812;4.430;2023-01-16T15:20:49;7.00;99.90
24800;DHT22;12897;50.812;4.430;2023-01-16T15:23:35;7.10;99.90
24800;DHT22;12897;50.812;4.430;2023-01-16T15:26:14;6.80;99.90
24800;DHT22;12897;50.812;4.430;2023-01-16T15:28:59;6.80;99.90
24800;DHT22;12897;50.812;4.430;2023-01-16T15:31:30;6.80;99.90
24800;DHT22;12897;50.812;4.430;2023-01-16T15:36:37;6.80;99.90
24800;DHT22;12897;50.812;4.430;2023-01-16T15:39:30;6.80;99.90
24800;DHT22;12897;50.812;4.430;2023-01-16T15:42:15;6.60;99.90
24800;DHT22;12897;50.812;4.430;2023-01-16T15:45:19;6.10;99.90
24800;DHT22;12897;50.812;4.430;2023-01-16T15:51:11;5.70;99.90
24800;DHT22;12897;50.812;4.430;2023-01-16T15:53:45;5.60;99.90
24800;DHT22;12897;50.812;4.430;2023-01-16T15:56:24;5.60;99.90
24800;DHT22;12897;50.812;4.430;2023-01-16T15:58:51;5.60;99.90
24800;DHT22;12897;50.812;4.430;2023-01-16T16:01:30;5.50;99.90
24800;DHT22;12897;50.812;4.430;2023-01-16T16:04:04;5.50;99.90
24800;DHT22;12897;50.812;4.430;2023-01-16T16:06:37;5.50;99.90
24800;DHT22;12897;50.812;4.430;2023-01-16T16:09:09;5.40;99.90
24800;DHT22;12897;50.812;4.430;2023-01-16T16:11:36;5.50;99.90
24800;DHT22;12897;50.812;4.430;2023-01-16T16:14:20;5.50;99.90
24800;DHT22;12897;50.812;4.430;2023-01-16T16:17:04;5.40;99.90
24800;DHT22;12897;50.812;4.430;2023-01-16T16:19:50;5.40;99.90
24800;DHT22;12897;50.812;4.430;2023-01-16T16:22:26;5.30;99.90
24800;DHT22;12897;50.812;4.430;2023-01-16T16:25:16;5.30;99.90
24800;DHT22;12897;50.812;4.430;2023-01-16T16:27:41;5.40;99.90
24800;DHT22;12897;50.812;4.430;2023-01-16T16:30:17;5.40;99.90
24800;DHT22;12897;50.812;4.430;2023-01-16T16:32:45;5.40;99.90
24800;DHT22;12897;50.812;4.430;2023-01-16T16:35:22;5.60;99.90
24800;DHT22;12897;50.812;4.430;2023-01-16T16:37:49;5.50;99.90
24800;DHT22;12897;50.812;4.430;2023-01-16T16:40:18;5.50;99.90
24800;DHT22;12897;50.812;4.430;2023-01-16T16:42:52;5.50;99.90
24800;DHT22;12897;50.812;4.430;2023-01-16T16:45:27;5.40;99.90
24800;DHT22;12897;50.812;4.430;2023-01-16T16:48:24;5.40;99.90
24800;DHT22;12897;50.812;4.430;2023-01-16T16:51:17;5.50;99.90
24800;DHT22;12897;50.812;4.430;2023-01-16T16:53:46;5.40;99.90
24800;DHT22;12897;50.812;4.430;2023-01-16T16:56:14;5.50;99.90
24800;DHT22;12897;50.812;4.430;2023-01-16T16:58:43;5.40;99.90
24800;DHT22;12897;50.812;4.430;2023-01-16T17:01:19;5.30;99.90
24800;DHT22;12897;50.812;4.430;2023-01-16T17:03:43;5.50;99.90
24800;DHT22;12897;50.812;4.430;2023-01-16T17:06:14;5.40;99.90
24800;DHT22;12897;50.812;4.430;2023-01-16T17:08:43;5.40;99.90
24800;DHT22;12897;50.812;4.430;2023-01-16T17:11:14;5.40;99.90
24800;DHT22;12897;50.812;4.430;2023-01-16T17:13:42;5.40;99.90
24800;DHT22;12897;50.812;4.430;2023-01-16T17:16:21;5.40;99.90
24800;DHT22;12897;50.812;4.430;2023-01-16T17:19:32;5.40;99.90
24800;DHT22;12897;50.812;4.430;2023-01-16T17:21:22;5.30;99.90
24800;DHT22;12897;50.812;4.430;2023-01-16T17:23:49;5.20;99.90
24800;DHT22;12897;50.812;4.430;2023-01-16T17:26:17;5.10;99.90
24800;DHT22;12897;50.812;4.430;2023-01-16T17:28:44;5.10;99.90
24800;DHT22;12897;50.812;4.430;2023-01-16T17:31:14;5.20;99.90
24800;DHT22;12897;50.812;4.430;2023-01-16T17:33:42;5.20;99.90
24800;DHT22;12897;50.812;4.430;2023-01-16T17:36:22;5.10;99.90
24800;DHT22;12897;50.812;4.430;2023-01-16T17:38:51;5.10;99.90
24800;DHT22;12897;50.812;4.430;2023-01-16T17:41:22;5.20;99.90
24800;DHT22;12897;50.812;4.430;2023-01-16T17:43:57;5.20;99.90
24800;DHT22;12897;50.812;4.430;2023-01-16T17:46:43;5.10;99.90
24800;DHT22;12897;50.812;4.430;2023-01-16T17:49:11;5.00;99.90
24800;DHT22;12897;50.812;4.430;2023-01-16T17:51:38;4.90;99.90
24800;DHT22;12897;50.812;4.430;2023-01-16T17:54:07;4.80;99.90
24800;DHT22;12897;50.812;4.430;2023-01-16T17:56:35;4.80;99.90
24800;DHT22;12897;50.812;4.430;2023-01-16T17:59:03;4.70;99.90
24800;DHT22;12897;50.812;4.430;2023-01-16T18:01:32;4.40;99.90
24800;DHT22;12897;50.812;4.430;2023-01-16T18:04:01;4.30;99.90
24800;DHT22;12897;50.812;4.430;2023-01-16T18:06:37;4.20;99.90
24800;DHT22;12897;50.812;4.430;2023-01-16T18:09:05;4.20;99.90
24800;DHT22;12897;50.812;4.430;2023-01-16T18:11:39;4.10;99.90
24800;DHT22;12897;50.812;4.430;2023-01-16T18:14:21;4.00;99.90
24800;DHT22;12897;50.812;4.430;2023-01-16T18:17:07;3.80;99.90
24800;DHT22;12897;50.812;4.430;2023-01-16T18:19:57;3.80;99.90
24800;DHT22;12897;50.812;4.430;2023-01-16T18:22:29;3.90;99.90
24800;DHT22;12897;50.812;4.430;2023-01-16T18:24:59;4.00;99.90
24800;DHT22;12897;50.812;4.430;2023-01-16T18:27:27;4.00;99.90
24800;DHT22;12897;50.812;4.430;2023-01-16T18:29:57;4.10;99.90